METAR ET TAF INFORMATION
METAR FOR ENZV
ADDS - METARS form results

(1503 UTC 20 May 2019)
Data provider http://aviationweather.gov/metar/data/
 
METAR text: ENZV 201450Z 29010KT CAVOK 19/11 Q1010 NOSIG
Conditions at: ENZV (STAVANGER/SOLA(A, NO) observed 1450 UTC 20 May 2019
Temperature: 19.0°C (66°F)
Dewpoint: 11.0°C (52°F) [RH = 60%]
Pressure (altimeter): 29.82 inches Hg (1010.0 mb)
Winds: from the WNW (290 degrees) at 12 MPH (10 knots; 5.1 m/s)
Visibility: 6 or more miles (10+ km)
Ceiling: ceiling and visibility are OK
Clouds: unknown
Weather: no significant weather observed at this time

METAR text: ENZV 201420Z 29012KT CAVOK 18/11 Q1011 NOSIG
Conditions at: ENZV (STAVANGER/SOLA(A, NO) observed 1420 UTC 20 May 2019
Temperature: 18.0°C (64°F)
Dewpoint: 11.0°C (52°F) [RH = 64%]
Pressure (altimeter): 29.85 inches Hg (1011.0 mb)
Winds: from the WNW (290 degrees) at 14 MPH (12 knots; 6.2 m/s)
Visibility: 6 or more miles (10+ km)
Ceiling: ceiling and visibility are OK
Clouds: unknown
Weather: no significant weather observed at this time

Forecast for: ENZV (STAVANGER/SOLA(A, NO)
Text: TAF ENZV 2012/2112 31012KT 9999 FEW040
Forecast period: 1200 to 1900 UTC 20 May 2019
Forecast type: FROM: standard forecast or significant change
Winds: from the NW (310 degrees) at 14 MPH (12 knots; 6.2 m/s)
Visibility: 6 or more miles 10+ km)
Ceiling: at least 12,000 feet AGL
Clouds: few clouds at 4000 feet AGL
Weather: no significant weather forecast for this period
Text: BECMG 2019/2021 VRB05KT
Forecast period: 1900 UTC 20 May 2019 to 1200 UTC 21 May 2019
Forecast type: BECOMING: Conditions expected to become as follows by 2100 UTC 20 May 2019
Winds: variable direction winds at 6 MPH (5 knots; 2.6 m/s)
Visibility: 6 or more miles 10+ km)
Ceiling: at least 12,000 feet AGL
Clouds: few clouds at 4000 feet AGL
Weather: no significant weather forecast for this period

 AÉROPORT DE AÉROPORT

 INFORMATIONS DE PISTE
Piste 11 Longueur de la piste 8035 ft Largeur de la piste 148 ft
Élévation de la piste 7 ft Seuil de la piste déplacés 329 ft Runway heading 106
Piste 29 Longueur de la piste 8035 ft Largeur de la piste 148 ft
Élévation de la piste 27 ft Seuil de la piste déplacés 501 ft Runway heading 286
Piste 18 Longueur de la piste 9369 ft Largeur de la piste 197 ft
Élévation de la piste 9 ft Seuil de la piste déplacés 492 ft Runway heading 179
Piste 36 Longueur de la piste 9369 ft Largeur de la piste 197 ft
Élévation de la piste 29 ft Seuil de la piste déplacés 492 ft Runway heading 359

 AÉROPORT FRÉQUENCES
Type APP Nom RADAR Féquence 119.6 MHZ
Type ARR Nom ARR Féquence 118.5 MHZ
Type ATIS Nom ATIS Féquence 126 MHZ
Type GND Nom GND Féquence 121.75 MHZ
Type TWR Nom TWR Féquence 118.35 MHZ

 SIDA DE NAVIGATION
Type NDB Nom Rennesoy Féquence 378 KHZ
Type TACAN Nom Sola Féquence 112250 KHZ
Type NDB Nom Varhaug Féquence 319 KHZ
Type NDB Nom Sola Féquence 352 KHZ
Type VOR-DME Nom Sola Féquence 116850 KHZ



Powered by Virtual Airlines Manager [v2.6.2]